createdAt,value
2023-02-22T00:00:20.207Z,66.27
2023-02-22T00:03:08.205Z,66.41
2023-02-22T00:05:35.899Z,66.15
2023-02-22T00:08:03.662Z,66.24
2023-02-22T00:10:31.325Z,65.98
2023-02-22T00:12:58.987Z,66.01
2023-02-22T00:15:29.516Z,66.17
2023-02-22T00:17:57.382Z,66.15
2023-02-22T00:20:25.154Z,66.24
2023-02-22T00:22:53.802Z,66.50
2023-02-22T00:25:21.494Z,66.33
2023-02-22T00:27:49.258Z,66.58
2023-02-22T00:30:19.340Z,66.62
2023-02-22T00:32:47.075Z,66.53
2023-02-22T00:35:14.911Z,66.65
2023-02-22T00:37:42.571Z,66.52
2023-02-22T00:40:10.328Z,66.34
2023-02-22T00:42:38.096Z,66.58
2023-02-22T00:45:05.958Z,66.64
2023-02-22T00:47:33.726Z,66.70
2023-02-22T00:50:01.495Z,66.90
2023-02-22T00:52:29.256Z,66.83
2023-02-22T00:54:58.039Z,66.84
2023-02-22T00:57:25.701Z,66.81
2023-02-22T00:59:53.365Z,67.00
2023-02-22T01:02:21.235Z,66.98
2023-02-22T01:04:49.095Z,67.02
2023-02-22T01:07:16.966Z,67.18
2023-02-22T01:09:44.631Z,67.34
2023-02-22T01:12:13.617Z,67.38
2023-02-22T01:14:41.379Z,67.40
2023-02-22T01:17:09.043Z,67.55
2023-02-22T01:19:36.704Z,67.64
2023-02-22T01:22:05.591Z,67.87
2023-02-22T01:24:33.363Z,67.96
2023-02-22T01:27:02.759Z,67.74
2023-02-22T01:29:30.523Z,67.96
2023-02-22T01:31:58.415Z,67.95
2023-02-22T01:34:26.356Z,67.93
2023-02-22T01:36:54.033Z,68.04
2023-02-22T01:39:21.781Z,68.27
2023-02-22T01:41:49.441Z,68.29
2023-02-22T01:44:17.104Z,68.28
2023-02-22T01:46:44.763Z,68.45
2023-02-22T01:49:12.373Z,68.37
2023-02-22T01:51:40.088Z,68.23
2023-02-22T01:54:07.850Z,68.40
2023-02-22T01:56:35.511Z,68.50
2023-02-22T01:59:03.191Z,68.58
2023-02-22T02:01:31.043Z,68.83
2023-02-22T02:03:59.037Z,68.77
2023-02-22T02:06:27.209Z,68.77
2023-02-22T02:08:54.952Z,68.68
2023-02-22T02:11:22.607Z,68.94
2023-02-22T02:13:50.372Z,69.22
2023-02-22T02:16:18.136Z,69.10
2023-02-22T02:18:46.007Z,69.10
2023-02-22T02:21:14.041Z,69.21
2023-02-22T02:23:41.939Z,69.14
2023-02-22T02:26:09.606Z,69.18
2023-02-22T02:28:37.264Z,69.15
2023-02-22T02:31:05.038Z,69.36
2023-02-22T02:33:32.794Z,69.46
2023-02-22T02:36:00.422Z,69.59
2023-02-22T02:38:28.170Z,69.42
2023-02-22T02:40:55.892Z,69.53
2023-02-22T02:43:23.542Z,69.53
2023-02-22T02:45:51.201Z,69.72
2023-02-22T02:48:19.171Z,69.75
2023-02-22T02:50:46.851Z,69.64
2023-02-22T02:53:14.600Z,69.76
2023-02-22T02:55:42.261Z,69.65
2023-02-22T02:58:10.023Z,69.79
2023-02-22T03:00:39.614Z,69.95
2023-02-22T03:03:07.505Z,69.92
2023-02-22T03:05:35.262Z,69.87
2023-02-22T03:08:02.935Z,69.83
2023-02-22T03:10:30.609Z,69.90
2023-02-22T03:12:58.861Z,69.89
2023-02-22T03:15:26.521Z,70.08
2023-02-22T03:17:54.182Z,69.99
2023-02-22T03:20:21.947Z,70.11
2023-02-22T03:22:49.611Z,70.22
2023-02-22T03:25:17.280Z,70.12
2023-02-22T03:27:45.138Z,69.93
2023-02-22T03:30:12.937Z,70.26
2023-02-22T03:32:41.387Z,70.03
2023-02-22T03:35:09.060Z,70.21
2023-02-22T03:37:37.734Z,70.38
2023-02-22T03:40:14.720Z,70.02
2023-02-22T03:42:42.375Z,70.20
2023-02-22T03:45:10.243Z,70.06
2023-02-22T03:47:38.014Z,70.02
2023-02-22T03:50:07.106Z,70.17
2023-02-22T03:52:35.176Z,70.21
2023-02-22T03:55:02.935Z,70.12
2023-02-22T03:57:30.594Z,70.21
2023-02-22T03:59:58.261Z,70.04
2023-02-22T04:02:25.918Z,70.22
2023-02-22T04:04:53.762Z,70.36
2023-02-22T04:10:24.646Z,70.47
2023-02-22T04:12:52.407Z,70.41
2023-02-22T04:15:20.381Z,70.54
2023-02-22T04:17:48.144Z,70.43
2023-02-22T04:20:15.800Z,70.47
2023-02-22T04:22:43.567Z,70.40
2023-02-22T04:25:11.227Z,70.34
2023-02-22T04:27:38.887Z,70.42
2023-02-22T04:30:06.588Z,70.55
2023-02-22T04:32:34.435Z,70.28
2023-02-22T04:35:02.178Z,70.37
2023-02-22T04:37:29.862Z,70.43
2023-02-22T04:39:57.500Z,70.50
2023-02-22T04:42:25.162Z,70.54
2023-02-22T04:44:52.838Z,70.53
2023-02-22T04:47:20.607Z,70.49
2023-02-22T04:49:48.253Z,70.71
2023-02-22T04:52:16.218Z,70.92
2023-02-22T04:54:44.086Z,70.80
2023-02-22T04:57:11.849Z,70.81
2023-02-22T04:59:40.841Z,70.96
2023-02-22T05:02:08.502Z,70.90
2023-02-22T05:04:36.338Z,70.85
2023-02-22T05:07:04.145Z,70.62
2023-02-22T05:09:31.797Z,70.80
2023-02-22T05:11:59.464Z,70.83
2023-02-22T05:14:27.834Z,70.93
2023-02-22T05:16:56.019Z,70.95
2023-02-22T05:19:23.773Z,70.88
2023-02-22T05:21:51.438Z,70.79
2023-02-22T05:24:19.303Z,70.79
2023-02-22T05:26:46.965Z,70.90
2023-02-22T05:29:14.826Z,70.95
2023-02-22T05:31:42.788Z,71.04
2023-02-22T05:34:10.585Z,71.08
2023-02-22T05:36:38.326Z,71.07
2023-02-22T05:39:05.993Z,71.03
2023-02-22T05:41:33.761Z,70.87
2023-02-22T05:44:03.162Z,70.83
2023-02-22T05:46:30.841Z,70.93
2023-02-22T05:48:58.587Z,71.08
2023-02-22T05:51:26.346Z,70.94
2023-02-22T05:53:54.212Z,71.06
2023-02-22T05:56:22.077Z,70.93
2023-02-22T05:58:49.941Z,70.99
2023-02-22T06:01:18.002Z,71.11
2023-02-22T06:03:46.083Z,71.16
2023-02-22T06:06:13.745Z,71.33
2023-02-22T06:08:41.405Z,71.35
2023-02-22T06:11:12.137Z,71.41
2023-02-22T06:13:39.911Z,71.33
2023-02-22T06:16:07.577Z,71.33
2023-02-22T06:18:35.348Z,71.53
2023-02-22T06:21:03.101Z,71.63
2023-02-22T06:23:30.753Z,71.62
2023-02-22T06:25:58.537Z,71.79
2023-02-22T06:28:26.692Z,71.94
2023-02-22T06:30:54.352Z,72.00
2023-02-22T06:33:22.118Z,72.02
2023-02-22T06:35:49.779Z,71.93
2023-02-22T06:38:18.463Z,71.86
2023-02-22T06:40:46.123Z,71.90
2023-02-22T06:43:13.787Z,71.77
2023-02-22T06:45:41.481Z,71.73
2023-02-22T06:48:09.517Z,71.80
2023-02-22T06:50:37.179Z,71.79
2023-02-22T06:53:05.065Z,71.76
2023-02-22T06:55:32.707Z,71.59
2023-02-22T06:58:00.480Z,71.67
2023-02-22T07:00:28.129Z,71.86
2023-02-22T07:02:55.900Z,71.69
2023-02-22T07:05:23.766Z,71.75
2023-02-22T07:07:52.874Z,71.82
2023-02-22T07:10:20.732Z,71.67
2023-02-22T07:12:49.321Z,71.56
2023-02-22T07:15:18.307Z,71.54
2023-02-22T07:17:46.070Z,71.42
2023-02-22T07:20:13.936Z,71.63
2023-02-22T07:22:41.600Z,71.39
2023-02-22T07:25:12.536Z,71.58
2023-02-22T07:27:40.199Z,71.56
2023-02-22T07:30:08.075Z,71.35
2023-02-22T07:32:36.021Z,71.35
2023-02-22T07:35:03.900Z,71.32
2023-02-22T07:37:31.661Z,71.51
2023-02-22T07:39:59.330Z,71.49
2023-02-22T07:42:26.992Z,71.40
2023-02-22T07:44:54.644Z,71.06
2023-02-22T07:47:22.310Z,71.04
2023-02-22T07:49:50.485Z,71.02
2023-02-22T07:52:18.253Z,71.19
2023-02-22T07:54:46.013Z,71.26
2023-02-22T07:57:14.087Z,71.15
2023-02-22T07:59:41.745Z,70.66
2023-02-22T08:02:09.663Z,70.31
2023-02-22T08:04:37.481Z,69.92
2023-02-22T08:07:05.141Z,68.75
2023-02-22T08:09:32.802Z,68.48
2023-02-22T08:12:00.465Z,67.50
2023-02-22T08:14:28.126Z,66.17
2023-02-22T08:16:55.944Z,66.04
2023-02-22T08:19:23.754Z,66.60
2023-02-22T08:21:51.724Z,66.38
2023-02-22T08:24:19.590Z,66.99
2023-02-22T08:26:47.460Z,67.46
2023-02-22T08:29:15.121Z,67.14
2023-02-22T08:31:42.961Z,67.82
2023-02-22T08:34:10.750Z,67.95
2023-02-22T08:36:38.415Z,68.17
2023-02-22T08:39:06.073Z,67.01
2023-02-22T08:41:33.732Z,66.73
2023-02-22T08:44:02.699Z,67.46
2023-02-22T08:46:30.388Z,67.26
2023-02-22T08:48:58.046Z,67.76
2023-02-22T08:51:27.704Z,67.23
2023-02-22T08:53:55.627Z,67.39
2023-02-22T08:56:23.488Z,67.05
2023-02-22T08:58:51.254Z,67.51
2023-02-22T09:01:27.936Z,67.15
2023-02-22T09:04:00.398Z,66.39
2023-02-22T09:06:30.721Z,66.03
2023-02-22T09:08:58.396Z,65.76
2023-02-22T09:11:26.151Z,65.09
2023-02-22T09:13:53.813Z,65.46
2023-02-22T09:16:21.599Z,64.86
2023-02-22T09:18:49.340Z,63.10
2023-02-22T09:21:17.391Z,62.13
2023-02-22T09:23:45.375Z,62.50
2023-02-22T09:26:16.119Z,62.84
2023-02-22T09:28:43.785Z,62.22
2023-02-22T09:31:11.534Z,61.30
2023-02-22T09:33:39.504Z,60.13
2023-02-22T09:36:07.164Z,60.30
2023-02-22T09:38:34.938Z,60.44
2023-02-22T09:41:02.690Z,60.83
2023-02-22T09:43:31.378Z,60.28
2023-02-22T09:45:59.154Z,58.33
2023-02-22T09:48:26.907Z,58.16
2023-02-22T09:50:54.568Z,58.40
2023-02-22T09:53:22.226Z,58.10
2023-02-22T09:55:50.002Z,58.27
2023-02-22T09:58:17.757Z,58.42
2023-02-22T10:00:45.426Z,57.33
2023-02-22T10:03:13.081Z,58.89
2023-02-22T10:05:42.176Z,59.29
2023-02-22T10:08:10.047Z,60.12
2023-02-22T10:10:39.548Z,60.11
2023-02-22T10:13:07.312Z,60.15
2023-02-22T10:15:35.181Z,59.67
2023-02-22T10:18:03.658Z,59.81
2023-02-22T10:20:31.319Z,59.39
2023-02-22T10:22:59.289Z,59.13
2023-02-22T10:25:26.951Z,57.47
2023-02-22T10:27:54.617Z,58.49
2023-02-22T10:30:25.373Z,59.23
2023-02-22T10:32:53.525Z,58.02
2023-02-22T10:35:22.005Z,58.83
2023-02-22T10:37:49.712Z,59.06
2023-02-22T10:40:17.544Z,59.01
2023-02-22T10:42:45.508Z,58.93
2023-02-22T10:45:13.266Z,58.27
2023-02-22T10:47:41.133Z,59.14
2023-02-22T10:50:08.794Z,57.84
2023-02-22T10:52:36.457Z,58.22
2023-02-22T10:55:15.295Z,58.78
2023-02-22T10:57:44.172Z,58.29
2023-02-22T11:00:14.188Z,57.70
2023-02-22T11:02:41.856Z,58.34
2023-02-22T11:05:09.678Z,59.54
2023-02-22T11:07:37.481Z,59.24
2023-02-22T11:10:05.155Z,58.55
2023-02-22T11:12:32.801Z,58.24
2023-02-22T11:15:00.570Z,59.27
2023-02-22T11:17:28.331Z,59.19
2023-02-22T11:19:55.990Z,58.81
2023-02-22T11:22:23.753Z,59.00
2023-02-22T11:24:51.420Z,59.14
2023-02-22T11:27:19.692Z,59.30
2023-02-22T11:29:51.044Z,58.49
2023-02-22T11:32:21.563Z,59.24
2023-02-22T11:35:03.623Z,58.49
2023-02-22T11:37:39.338Z,59.03
2023-02-22T11:40:07.077Z,58.54
2023-02-22T11:42:34.943Z,57.75
2023-02-22T11:45:02.618Z,57.59
2023-02-22T11:47:30.369Z,58.06
2023-02-22T11:49:58.134Z,58.46
2023-02-22T11:52:28.409Z,58.59
2023-02-22T11:54:56.117Z,59.29
2023-02-22T11:57:24.221Z,59.10
2023-02-22T11:59:51.957Z,59.03
2023-02-22T12:02:19.619Z,59.23
2023-02-22T12:04:47.319Z,59.46
2023-02-22T12:07:15.774Z,59.41
2023-02-22T12:09:43.622Z,59.24
2023-02-22T12:12:12.004Z,59.24
2023-02-22T12:14:39.770Z,59.09
2023-02-22T12:17:07.529Z,58.93
2023-02-22T12:19:36.324Z,58.86
2023-02-22T12:22:03.985Z,58.42
2023-02-22T12:24:33.687Z,58.58
2023-02-22T12:27:01.455Z,58.73
2023-02-22T12:29:29.115Z,57.32
2023-02-22T12:31:57.726Z,57.20
2023-02-22T12:34:27.454Z,57.79
2023-02-22T12:36:55.243Z,57.86
2023-02-22T12:39:22.861Z,58.38
2023-02-22T12:41:50.475Z,58.79
2023-02-22T12:44:18.098Z,58.20
2023-02-22T12:46:46.810Z,58.45
2023-02-22T12:49:14.507Z,58.50
2023-02-22T12:51:42.158Z,59.07
2023-02-22T12:54:12.056Z,58.87
2023-02-22T12:56:39.700Z,58.27
2023-02-22T12:59:08.511Z,57.63
2023-02-22T13:01:36.141Z,58.34
2023-02-22T13:04:19.468Z,57.96
2023-02-22T13:06:47.618Z,56.52
2023-02-22T13:09:15.362Z,57.27
2023-02-22T13:11:43.122Z,57.73
2023-02-22T13:14:10.788Z,57.76
2023-02-22T13:16:38.547Z,57.49
2023-02-22T13:19:06.208Z,56.51
2023-02-22T13:21:33.870Z,56.43
2023-02-22T13:24:05.532Z,56.55
2023-02-22T13:26:33.392Z,57.23
2023-02-22T13:29:01.055Z,57.40
2023-02-22T13:31:28.862Z,57.13
2023-02-22T13:33:56.684Z,57.23
2023-02-22T13:36:24.373Z,56.20
2023-02-22T13:38:52.108Z,56.15
2023-02-22T13:41:19.768Z,54.64
2023-02-22T13:43:47.430Z,54.54
2023-02-22T13:46:17.390Z,54.68
2023-02-22T13:48:45.415Z,55.33
2023-02-22T13:51:13.181Z,55.81
2023-02-22T13:53:43.835Z,55.82
2023-02-22T13:56:12.188Z,56.13
2023-02-22T13:58:39.849Z,55.39
2023-02-22T14:01:07.511Z,55.07
2023-02-22T14:03:36.506Z,54.67
2023-02-22T14:06:04.266Z,54.58
2023-02-22T14:08:32.133Z,55.00
2023-02-22T14:11:00.521Z,54.69
2023-02-22T14:13:28.688Z,55.21
2023-02-22T14:15:56.463Z,55.09
2023-02-22T14:18:24.118Z,55.66
2023-02-22T14:20:51.879Z,55.48
2023-02-22T14:23:20.048Z,56.03
2023-02-22T14:25:47.818Z,55.61
2023-02-22T14:28:15.475Z,55.21
2023-02-22T14:30:43.196Z,54.62
2023-02-22T14:33:11.002Z,54.58
2023-02-22T14:35:49.370Z,54.04
2023-02-22T14:38:21.277Z,53.78
2023-02-22T14:40:49.142Z,53.77
2023-02-22T14:43:20.008Z,53.75
2023-02-22T14:45:47.767Z,54.36
2023-02-22T14:48:15.506Z,54.33
2023-02-22T14:50:46.139Z,54.28
2023-02-22T14:53:13.823Z,54.42
2023-02-22T14:55:41.564Z,54.93
2023-02-22T14:58:09.193Z,53.74
2023-02-22T15:00:36.801Z,52.87
2023-02-22T15:03:05.156Z,53.69
2023-02-22T15:05:32.825Z,54.05
2023-02-22T15:08:00.511Z,54.09
2023-02-22T15:10:28.357Z,54.37
2023-02-22T15:13:09.082Z,54.25
2023-02-22T15:15:36.988Z,54.00
2023-02-22T15:18:06.800Z,54.70
2023-02-22T15:20:34.466Z,54.92
2023-02-22T15:23:02.227Z,55.46
2023-02-22T15:25:31.522Z,54.33
2023-02-22T15:27:59.394Z,54.75
2023-02-22T15:30:27.068Z,54.86
2023-02-22T15:33:04.156Z,54.27
2023-02-22T15:35:33.698Z,54.75
2023-02-22T15:38:01.613Z,54.94
2023-02-22T15:40:35.540Z,55.01
2023-02-22T15:43:03.285Z,54.91
2023-02-22T15:45:32.540Z,54.93
2023-02-22T15:48:00.559Z,55.31
2023-02-22T15:50:28.218Z,55.41
2023-02-22T15:52:58.315Z,55.33
2023-02-22T15:55:26.206Z,55.37
2023-02-22T15:57:53.968Z,55.10
2023-02-22T16:00:21.742Z,54.82
2023-02-22T16:02:51.337Z,54.77
2023-02-22T16:05:19.323Z,55.21
2023-02-22T16:07:48.213Z,55.42
2023-02-22T16:10:17.294Z,55.29
2023-02-22T16:12:45.057Z,55.83
2023-02-22T16:15:12.721Z,56.24
2023-02-22T16:18:02.282Z,55.29
2023-02-22T16:20:29.854Z,55.57
2023-02-22T16:22:57.948Z,55.19
2023-02-22T16:25:26.813Z,54.59
2023-02-22T16:27:56.216Z,55.20
2023-02-22T16:30:25.854Z,55.04
2023-02-22T16:32:53.747Z,54.81
2023-02-22T16:35:21.586Z,55.08
2023-02-22T16:37:49.222Z,55.36
2023-02-22T16:40:16.876Z,56.06
2023-02-22T16:42:44.640Z,56.05
2023-02-22T16:45:14.452Z,56.30
2023-02-22T16:47:42.116Z,56.65
2023-02-22T16:50:09.775Z,56.92
2023-02-22T16:52:37.540Z,57.11
2023-02-22T16:55:06.126Z,57.56
2023-02-22T16:57:33.892Z,57.42
2023-02-22T17:00:01.555Z,58.18
2023-02-22T17:02:29.320Z,58.02
2023-02-22T17:04:57.383Z,57.78
2023-02-22T17:07:30.041Z,57.99
2023-02-22T17:10:00.492Z,57.76
2023-02-22T17:12:28.248Z,57.57
2023-02-22T17:14:55.919Z,57.13
2023-02-22T17:17:23.987Z,57.47
2023-02-22T17:19:51.952Z,57.46
2023-02-22T17:22:19.612Z,57.29
2023-02-22T17:24:47.276Z,56.85
2023-02-22T17:27:15.038Z,56.91
2023-02-22T17:29:44.337Z,56.35
2023-02-22T17:32:12.015Z,56.54
2023-02-22T17:34:40.991Z,57.04
2023-02-22T17:37:08.659Z,57.35
2023-02-22T17:39:36.420Z,56.74
2023-02-22T17:42:04.286Z,56.57
2023-02-22T17:44:31.951Z,56.70
2023-02-22T17:46:59.820Z,57.03
2023-02-22T17:49:27.478Z,57.21
2023-02-22T17:51:55.756Z,57.34
2023-02-22T17:54:23.725Z,57.60
2023-02-22T17:56:51.394Z,58.07
2023-02-22T17:59:19.049Z,58.57
2023-02-22T18:01:46.733Z,59.28
2023-02-22T18:04:14.485Z,59.83
2023-02-22T18:06:42.234Z,60.34
2023-02-22T18:09:17.962Z,60.63
2023-02-22T18:11:45.664Z,60.90
2023-02-22T18:14:13.717Z,61.14
2023-02-22T18:16:41.787Z,61.38
2023-02-22T18:19:09.556Z,61.47
2023-02-22T18:21:38.737Z,61.64
2023-02-22T18:24:06.820Z,61.92
2023-02-22T18:26:34.523Z,62.01
2023-02-22T18:29:02.453Z,62.18
2023-02-22T18:31:30.306Z,62.26
2023-02-22T18:33:58.401Z,62.12
2023-02-22T18:36:26.161Z,62.12
2023-02-22T18:38:53.916Z,62.20
2023-02-22T18:41:25.563Z,62.25
2023-02-22T18:43:55.678Z,62.21
2023-02-22T18:46:23.588Z,62.33
2023-02-22T18:48:51.324Z,62.43
2023-02-22T18:51:18.983Z,62.54
2023-02-22T18:53:48.044Z,62.52
2023-02-22T18:56:16.089Z,62.56
2023-02-22T18:58:44.020Z,62.60
2023-02-22T19:01:11.781Z,62.71
2023-02-22T19:03:39.443Z,62.72
2023-02-22T19:06:08.907Z,62.82
2023-02-22T19:08:39.736Z,62.83
2023-02-22T19:11:08.546Z,62.84
2023-02-22T19:13:36.440Z,63.17
2023-02-22T19:16:04.235Z,62.94
2023-02-22T19:18:32.080Z,62.97
2023-02-22T19:20:59.836Z,63.18
2023-02-22T19:23:28.630Z,63.12
2023-02-22T19:25:56.282Z,63.16
2023-02-22T19:28:28.247Z,63.21
2023-02-22T19:30:56.977Z,63.21
2023-02-22T19:33:26.228Z,63.28
2023-02-22T19:35:54.100Z,63.54
2023-02-22T19:38:21.864Z,63.54
2023-02-22T19:40:49.624Z,63.61
2023-02-22T19:43:17.490Z,63.36
2023-02-22T19:45:45.279Z,63.39
2023-02-22T19:48:14.556Z,63.43
2023-02-22T19:50:49.290Z,63.40
2023-02-22T19:53:17.045Z,63.82
2023-02-22T19:55:45.218Z,63.67
2023-02-22T19:58:15.545Z,63.82
2023-02-22T20:00:43.213Z,63.87
2023-02-22T20:03:13.501Z,63.81
2023-02-22T20:05:41.610Z,63.97
2023-02-22T20:08:09.365Z,63.95
2023-02-22T20:10:37.334Z,64.27
2023-02-22T20:13:05.096Z,64.25
2023-02-22T20:15:32.860Z,64.35
2023-02-22T20:18:01.341Z,64.56
2023-02-22T20:20:30.647Z,64.89
2023-02-22T20:22:58.714Z,64.89
2023-02-22T20:25:26.479Z,64.77
2023-02-22T20:27:54.138Z,64.75
2023-02-22T20:30:23.232Z,64.75
2023-02-22T20:32:51.194Z,64.98
2023-02-22T20:35:19.273Z,64.83
2023-02-22T20:37:46.935Z,64.90
2023-02-22T20:40:14.706Z,64.85
2023-02-22T20:42:44.511Z,65.24
2023-02-22T20:45:14.837Z,64.84
2023-02-22T20:47:42.600Z,65.05
2023-02-22T20:50:10.363Z,64.96
2023-02-22T20:52:38.331Z,64.83
2023-02-22T20:55:06.408Z,65.01
2023-02-22T20:57:34.067Z,65.03
2023-02-22T21:00:01.745Z,65.06
2023-02-22T21:02:29.490Z,64.78
2023-02-22T21:04:57.206Z,64.61
2023-02-22T21:07:25.030Z,64.72
2023-02-22T21:09:52.891Z,64.89
2023-02-22T21:12:20.584Z,64.85
2023-02-22T21:14:48.426Z,64.66
2023-02-22T21:17:18.023Z,64.63
2023-02-22T21:19:45.797Z,64.74
2023-02-22T21:22:14.016Z,64.66
2023-02-22T21:24:41.841Z,64.57
2023-02-22T21:27:12.377Z,64.78
2023-02-22T21:29:40.119Z,64.85
2023-02-22T21:32:08.910Z,64.74
2023-02-22T21:34:36.686Z,64.66
2023-02-22T21:37:08.413Z,64.66
2023-02-22T21:39:36.299Z,64.38
2023-02-22T21:42:07.365Z,65.00
2023-02-22T21:44:35.208Z,64.82
2023-02-22T21:47:03.279Z,64.84
2023-02-22T21:49:31.041Z,65.04
2023-02-22T21:51:58.907Z,65.03
2023-02-22T21:54:28.146Z,64.86
2023-02-22T21:56:56.287Z,64.86
2023-02-22T21:59:24.065Z,65.10
2023-02-22T22:01:51.856Z,65.04
2023-02-22T22:04:19.689Z,64.88
2023-02-22T22:06:47.844Z,65.11
2023-02-22T22:09:18.584Z,64.86
2023-02-22T22:11:46.344Z,65.13
2023-02-22T22:14:14.107Z,64.96
2023-02-22T22:16:41.867Z,65.04
2023-02-22T22:19:09.630Z,64.98
2023-02-22T22:21:38.009Z,64.77
2023-02-22T22:24:07.307Z,64.93
2023-02-22T22:26:35.091Z,65.06
2023-02-22T22:29:04.683Z,65.05
2023-02-22T22:31:32.425Z,65.13
2023-02-22T22:34:00.312Z,64.90
2023-02-22T22:36:27.970Z,65.08
2023-02-22T22:38:57.740Z,65.24
2023-02-22T22:41:28.289Z,65.28
2023-02-22T22:43:56.078Z,65.31
2023-02-22T22:46:23.916Z,65.34
2023-02-22T22:48:51.806Z,65.18
2023-02-22T22:51:20.447Z,64.94
2023-02-22T22:53:48.666Z,65.15
2023-02-22T22:56:19.367Z,65.06
2023-02-22T22:58:47.059Z,65.31
2023-02-22T23:01:18.291Z,65.20
2023-02-22T23:03:48.909Z,65.22
2023-02-22T23:06:16.701Z,65.30
2023-02-22T23:08:44.989Z,65.11
2023-02-22T23:11:12.738Z,65.07
2023-02-22T23:13:40.403Z,65.55
2023-02-22T23:16:08.111Z,65.34
2023-02-22T23:18:36.547Z,65.40
2023-02-22T23:21:05.752Z,65.42
2023-02-22T23:23:33.404Z,65.40
2023-02-22T23:26:01.068Z,65.32
2023-02-22T23:28:28.729Z,65.14
2023-02-22T23:30:57.371Z,65.10
2023-02-22T23:33:25.230Z,65.09
2023-02-22T23:35:53.660Z,65.30
2023-02-22T23:38:21.328Z,65.23
2023-02-22T23:40:49.086Z,65.21
2023-02-22T23:43:17.165Z,65.19
2023-02-22T23:45:48.095Z,65.02
2023-02-22T23:48:20.474Z,65.14
2023-02-22T23:50:49.156Z,65.05
2023-02-22T23:53:16.818Z,65.27
2023-02-22T23:55:44.584Z,65.22
2023-02-22T23:58:13.573Z,65.33
